Time;durP1;ratioP1;P1;durP2;ratioP2;P2;SDS_P1;SDS_P2;PMS_P1;PMS_P2;Temp;Humidity;BMP_temperature;BMP_pressure;BME280_temperature;BME280_humidity;BME280_pressure;Samples;Min_cycle;Max_cycle;Signal;HPM_P1;HPM_P2
2022/03/29 00:00:29;;;;;;;19.13;13.45;;;11.60;99.90;;;;;;5007809;28;20559;-77
2022/03/29 00:02:56;;;;;;;19.15;14.00;;;11.70;99.90;;;;;;5020782;28;20219;-77
2022/03/29 00:05:24;;;;;;;18.83;14.07;;;11.60;99.90;;;;;;5021667;28;20664;-77
2022/03/29 00:07:51;;;;;;;20.65;14.25;;;11.50;99.90;;;;;;5020367;28;20282;-77
2022/03/29 00:10:21;;;;;;;18.50;13.30;;;11.30;99.90;;;;;;5018111;28;20206;-76
2022/03/29 00:12:50;;;;;;;19.70;14.48;;;11.40;99.90;;;;;;5025508;28;20230;-77
2022/03/29 00:15:17;;;;;;;21.90;15.35;;;11.40;99.90;;;;;;5015167;28;20215;-76
2022/03/29 00:17:45;;;;;;;18.02;14.48;;;11.30;99.90;;;;;;5014943;28;20196;-79
2022/03/29 00:20:12;;;;;;;21.00;14.80;;;11.20;99.90;;;;;;5014527;28;20588;-76
2022/03/29 00:22:40;;;;;;;20.60;15.32;;;11.20;99.90;;;;;;5029683;28;20229;-77
2022/03/29 00:25:08;;;;;;;20.80;15.40;;;11.10;99.90;;;;;;5017942;28;20210;-77
2022/03/29 00:27:38;;;;;;;22.33;15.38;;;11.30;99.90;;;;;;5025992;28;20199;-76
2022/03/29 00:30:07;;;;;;;18.83;15.73;;;11.40;99.90;;;;;;5025534;28;20202;-79
2022/03/29 00:32:35;;;;;;;21.92;15.43;;;11.50;99.90;;;;;;5020974;28;20585;-77
2022/03/29 00:35:04;;;;;;;24.20;17.65;;;11.70;99.90;;;;;;5027068;28;20222;-77
2022/03/29 00:37:31;;;;;;;20.88;16.02;;;11.70;99.90;;;;;;5021815;28;20576;-77
2022/03/29 00:39:58;;;;;;;21.20;16.73;;;11.70;99.90;;;;;;5026018;28;20230;-76
2022/03/29 00:42:26;;;;;;;23.23;16.48;;;11.70;99.90;;;;;;5028202;28;20222;-76
2022/03/29 00:44:57;;;;;;;22.92;17.15;;;11.60;99.90;;;;;;5026635;28;20204;-77
2022/03/29 00:47:25;;;;;;;20.45;16.35;;;11.60;99.90;;;;;;5020153;28;20550;-77
2022/03/29 00:49:52;;;;;;;23.52;17.17;;;11.70;99.90;;;;;;5022888;28;20192;-77
2022/03/29 00:52:21;;;;;;;21.52;16.98;;;11.60;99.90;;;;;;5019345;28;20227;-77
2022/03/29 00:54:49;;;;;;;21.15;17.58;;;11.70;99.90;;;;;;5027875;28;20211;-77
2022/03/29 00:57:18;;;;;;;22.23;17.30;;;11.60;99.90;;;;;;5035287;28;20195;-78
2022/03/29 00:59:47;;;;;;;22.98;18.05;;;11.60;99.90;;;;;;5025103;28;20211;-77
2022/03/29 01:02:15;;;;;;;25.30;17.98;;;11.50;99.90;;;;;;5018385;28;20228;-77
2022/03/29 01:04:43;;;;;;;25.00;17.85;;;11.20;99.90;;;;;;5024958;28;20203;-78
2022/03/29 01:07:11;;;;;;;23.65;18.38;;;11.20;99.90;;;;;;5016704;28;20191;-76
2022/03/29 01:09:39;;;;;;;22.50;18.10;;;11.00;99.90;;;;;;5024932;28;20196;-77
2022/03/29 01:12:08;;;;;;;24.30;18.15;;;10.80;99.90;;;;;;5024353;28;20233;-77
2022/03/29 01:14:37;;;;;;;24.10;18.70;;;10.90;99.90;;;;;;5029988;28;20218;-76
2022/03/29 01:19:54;;;;;;;25.73;19.00;;;10.60;99.90;;;;;;5027075;28;20228;-77
2022/03/29 01:22:23;;;;;;;23.87;18.33;;;10.60;99.90;;;;;;5023354;28;20219;-77
2022/03/29 01:24:53;;;;;;;23.87;18.90;;;10.60;99.90;;;;;;5025066;28;20199;-77
2022/03/29 01:27:21;;;;;;;25.33;18.93;;;10.50;99.90;;;;;;5022840;28;20207;-76
2022/03/29 01:29:56;;;;;;;27.80;20.23;;;10.50;99.90;;;;;;5027714;28;20202;-76
2022/03/29 01:32:27;;;;;;;25.23;19.17;;;10.50;99.90;;;;;;5024955;28;20225;-77
2022/03/29 01:34:55;;;;;;;25.60;20.47;;;10.60;99.90;;;;;;5031945;28;20219;-78
2022/03/29 01:37:24;;;;;;;25.57;18.40;;;10.70;99.90;;;;;;5015992;28;20214;-76
2022/03/29 01:39:51;;;;;;;27.30;20.37;;;10.90;99.90;;;;;;5019341;28;20203;-77
2022/03/29 01:42:20;;;;;;;24.50;20.07;;;10.60;99.90;;;;;;5016919;28;20219;-77
2022/03/29 01:44:47;;;;;;;25.00;18.90;;;10.80;99.90;;;;;;5023821;28;20207;-77
2022/03/29 01:47:20;;;;;;;22.83;18.80;;;11.10;99.90;;;;;;5020628;28;20207;-76
2022/03/29 01:49:48;;;;;;;23.67;19.37;;;11.00;99.90;;;;;;5025296;28;20207;-77
2022/03/29 01:52:16;;;;;;;25.33;19.77;;;11.20;99.90;;;;;;5026606;28;20219;-77
2022/03/29 01:54:44;;;;;;;25.13;19.85;;;11.30;99.90;;;;;;5027150;28;20199;-77
2022/03/29 01:57:12;;;;;;;27.55;21.80;;;11.30;99.90;;;;;;5035977;28;20202;-77
2022/03/29 02:02:29;;;;;;;25.88;20.85;;;11.20;99.90;;;;;;5031866;28;20238;-78
2022/03/29 02:04:57;;;;;;;23.80;19.07;;;11.30;99.90;;;;;;5018405;28;20210;-77
2022/03/29 02:07:24;;;;;;;24.92;21.25;;;11.40;99.90;;;;;;5021138;28;20694;-77
2022/03/29 02:09:53;;;;;;;25.80;20.85;;;11.30;99.90;;;;;;5023543;28;20198;-77
2022/03/29 02:12:20;;;;;;;26.17;21.05;;;11.20;99.90;;;;;;5019203;28;20218;-77
2022/03/29 02:14:47;;;;;;;28.48;21.73;;;11.30;99.90;;;;;;5026839;28;20207;-76
2022/03/29 02:17:15;;;;;;;29.97;22.57;;;11.40;99.90;;;;;;5040919;28;20203;-77
2022/03/29 02:19:52;;;;;;;29.03;21.93;;;11.20;99.90;;;;;;5028989;28;20207;-78
2022/03/29 02:22:20;;;;;;;28.77;23.40;;;10.70;99.90;;;;;;5019728;28;20297;-76
2022/03/29 02:24:49;;;;;;;30.33;22.97;;;10.60;99.90;;;;;;5029775;28;20210;-77
2022/03/29 02:27:17;;;;;;;27.83;21.73;;;10.90;99.90;;;;;;5022189;28;20202;-76
2022/03/29 02:29:45;;;;;;;29.90;23.60;;;11.00;99.90;;;;;;5028037;28;20218;-77
2022/03/29 02:32:12;;;;;;;34.10;23.87;;;11.10;99.90;;;;;;5027530;28;20588;-77
2022/03/29 02:34:39;;;;;;;29.80;23.57;;;10.90;99.90;;;;;;5027135;28;20582;-76
2022/03/29 02:37:11;;;;;;;29.60;24.40;;;10.80;99.90;;;;;;5026658;28;20203;-77
2022/03/29 02:39:42;;;;;;;31.90;24.00;;;10.90;99.90;;;;;;5019527;28;20287;-78
2022/03/29 02:42:12;;;;;;;30.17;23.17;;;10.80;99.90;;;;;;5025274;28;20218;-77
2022/03/29 02:44:41;;;;;;;30.40;23.50;;;10.80;99.90;;;;;;5021423;28;20769;-77
2022/03/29 02:47:09;;;;;;;31.87;24.23;;;10.60;99.90;;;;;;5025052;28;20210;-80
2022/03/29 02:49:37;;;;;;;29.63;24.70;;;10.50;99.90;;;;;;5016702;28;20203;-77
2022/03/29 02:52:05;;;;;;;29.23;23.33;;;10.30;99.90;;;;;;5019076;28;20221;-77
2022/03/29 02:54:32;;;;;;;29.83;24.83;;;10.40;99.90;;;;;;5026969;28;20203;-77
2022/03/29 02:57:00;;;;;;;29.57;23.47;;;10.50;99.90;;;;;;5026186;28;20665;-76
2022/03/29 02:59:27;;;;;;;29.47;23.80;;;10.50;99.90;;;;;;5017941;28;20214;-77
2022/03/29 03:01:57;;;;;;;30.57;24.57;;;10.50;99.90;;;;;;5023489;28;20225;-77
2022/03/29 03:04:24;;;;;;;35.07;24.57;;;10.50;99.90;;;;;;5019925;28;20202;-76
2022/03/29 03:06:51;;;;;;;32.57;25.57;;;10.60;99.90;;;;;;5028141;28;20206;-78
2022/03/29 03:09:22;;;;;;;31.83;24.70;;;10.60;99.90;;;;;;5041030;28;20278;-77
2022/03/29 03:11:51;;;;;;;32.33;25.07;;;10.50;99.90;;;;;;5013096;28;20219;-77
2022/03/29 03:14:18;;;;;;;31.17;24.77;;;10.60;99.90;;;;;;5018884;28;20203;-77
2022/03/29 03:16:49;;;;;;;31.77;24.63;;;10.60;99.90;;;;;;5023643;28;20206;-77
2022/03/29 03:19:19;;;;;;;30.77;24.63;;;10.40;99.90;;;;;;5019885;28;20199;-78
2022/03/29 03:21:47;;;;;;;35.50;27.37;;;10.50;99.90;;;;;;5031450;28;20261;-78
2022/03/29 03:24:16;;;;;;;33.03;26.83;;;10.40;99.90;;;;;;5034635;28;20206;-78
2022/03/29 03:26:43;;;;;;;35.03;26.23;;;10.60;99.90;;;;;;5019146;28;20210;-78
2022/03/29 03:29:11;;;;;;;30.43;25.70;;;10.70;99.90;;;;;;5027153;28;20724;-78
2022/03/29 03:31:38;;;;;;;34.30;26.00;;;10.50;99.90;;;;;;5010978;28;20231;-79
2022/03/29 03:34:06;;;;;;;35.70;26.40;;;10.40;99.90;;;;;;5013124;28;20202;-78
2022/03/29 03:36:34;;;;;;;31.13;26.00;;;10.40;99.90;;;;;;5013729;28;20219;-78
2022/03/29 03:39:02;;;;;;;36.63;27.30;;;10.30;99.90;;;;;;5018491;28;20206;-81
2022/03/29 03:41:30;;;;;;;36.10;26.63;;;10.20;99.90;;;;;;5015036;28;20224;-78
2022/03/29 03:43:57;;;;;;;36.93;27.93;;;10.20;99.90;;;;;;5033129;28;20665;-78
2022/03/29 03:46:25;;;;;;;33.73;27.23;;;10.00;99.90;;;;;;5026702;28;20196;-78
2022/03/29 03:48:52;;;;;;;37.63;28.03;;;10.10;99.90;;;;;;5021689;28;20203;-78
2022/03/29 03:51:20;;;;;;;36.53;26.93;;;10.00;99.90;;;;;;5021128;28;20191;-78
2022/03/29 03:53:50;;;;;;;34.47;26.23;;;10.00;99.90;;;;;;5023839;28;20208;-78
2022/03/29 03:56:20;;;;;;;35.93;27.43;;;10.10;99.90;;;;;;5018770;28;20206;-78
2022/03/29 03:58:50;;;;;;;35.90;27.27;;;10.40;99.90;;;;;;5033067;28;20211;-78
2022/03/29 04:01:18;;;;;;;34.07;26.37;;;10.40;99.90;;;;;;5042215;28;20210;-77
2022/03/29 04:03:45;;;;;;;35.13;26.83;;;10.30;99.90;;;;;;5023493;28;20204;-77
2022/03/29 04:06:15;;;;;;;38.87;26.77;;;10.30;99.90;;;;;;5029815;28;20207;-77
2022/03/29 04:08:43;;;;;;;35.50;26.90;;;10.30;99.90;;;;;;5023201;28;20218;-77
2022/03/29 04:11:14;;;;;;;37.87;27.43;;;10.30;99.90;;;;;;5031157;28;20206;-76
2022/03/29 04:13:41;;;;;;;32.07;25.10;;;10.40;99.90;;;;;;5029176;28;20665;-77
2022/03/29 04:16:09;;;;;;;35.07;27.83;;;10.30;99.90;;;;;;5029909;28;20194;-77
2022/03/29 04:18:36;;;;;;;32.80;26.67;;;10.30;99.90;;;;;;5025114;28;20204;-77
2022/03/29 04:21:05;;;;;;;35.57;28.80;;;10.10;99.90;;;;;;5021708;28;20217;-77
2022/03/29 04:23:32;;;;;;;33.93;26.87;;;10.10;99.90;;;;;;5040425;28;20207;-77
2022/03/29 04:26:00;;;;;;;35.60;28.53;;;10.10;99.90;;;;;;5037531;28;20203;-76
2022/03/29 04:28:28;;;;;;;36.00;27.57;;;10.00;99.90;;;;;;5030312;28;20560;-76
2022/03/29 04:30:56;;;;;;;38.40;29.10;;;9.70;99.90;;;;;;5028115;28;20195;-77
2022/03/29 04:33:23;;;;;;;40.87;30.27;;;9.50;99.90;;;;;;5038854;28;20223;-77
2022/03/29 04:35:51;;;;;;;35.27;27.77;;;9.50;99.90;;;;;;5024107;28;20203;-76
2022/03/29 04:38:18;;;;;;;39.47;28.73;;;9.70;99.90;;;;;;5024797;28;20537;-77
2022/03/29 04:40:45;;;;;;;41.27;29.93;;;9.60;99.90;;;;;;5029910;28;20200;-77
2022/03/29 04:43:13;;;;;;;39.23;29.97;;;9.50;99.90;;;;;;5030570;28;20231;-77
2022/03/29 04:45:42;;;;;;;39.90;29.57;;;9.30;99.90;;;;;;5025160;28;20204;-76
2022/03/29 04:48:12;;;;;;;40.93;30.10;;;9.40;99.90;;;;;;5021955;28;20195;-77
2022/03/29 04:50:39;;;;;;;51.43;33.87;;;9.40;99.90;;;;;;5029391;28;20661;-77
2022/03/29 04:53:09;;;;;;;54.67;34.50;;;9.30;99.90;;;;;;5037059;28;20230;-76
2022/03/29 04:55:37;;;;;;;59.53;35.63;;;9.20;99.90;;;;;;5039402;28;20215;-77
2022/03/29 04:58:06;;;;;;;57.67;34.37;;;9.20;99.90;;;;;;5029415;28;20210;-76
2022/03/29 05:00:37;;;;;;;57.10;35.33;;;9.20;99.90;;;;;;5045595;28;20203;-76
2022/03/29 05:03:06;;;;;;;63.47;36.30;;;9.20;99.90;;;;;;5023208;28;20242;-77
2022/03/29 05:05:34;;;;;;;58.20;35.37;;;9.20;99.90;;;;;;5029714;28;20202;-77
2022/03/29 05:08:02;;;;;;;60.57;35.97;;;9.20;99.90;;;;;;5025467;28;20545;-77
2022/03/29 05:10:29;;;;;;;56.63;34.17;;;9.30;99.90;;;;;;5024252;28;20199;-78
2022/03/29 05:12:57;;;;;;;52.30;34.00;;;9.60;99.90;;;;;;5023997;28;20536;-76
2022/03/29 05:15:25;;;;;;;50.33;34.07;;;9.60;99.90;;;;;;5031625;28;20203;-76
2022/03/29 05:17:52;;;;;;;53.60;34.70;;;9.50;99.90;;;;;;5022749;28;20194;-77
2022/03/29 05:20:21;;;;;;;55.30;34.87;;;9.40;99.90;;;;;;5025705;28;20234;-76
2022/03/29 05:22:50;;;;;;;57.10;36.37;;;9.40;99.90;;;;;;5023954;28;20744;-75
2022/03/29 05:25:19;;;;;;;60.90;37.73;;;9.40;99.90;;;;;;5027785;28;20210;-76
2022/03/29 05:27:47;;;;;;;62.53;35.87;;;9.30;99.90;;;;;;5022102;28;20661;-76
2022/03/29 05:30:15;;;;;;;62.97;37.10;;;9.30;99.90;;;;;;5020273;28;20218;-76
2022/03/29 05:32:43;;;;;;;66.77;37.80;;;9.40;99.90;;;;;;5015864;28;20861;-76
2022/03/29 05:35:12;;;;;;;63.63;38.67;;;9.30;99.90;;;;;;5023916;28;20699;-76
2022/03/29 05:37:42;;;;;;;66.23;38.80;;;9.00;99.90;;;;;;5027431;28;20224;-76
2022/03/29 05:40:12;;;;;;;74.93;39.30;;;8.90;99.90;;;;;;5038541;28;20211;-75
2022/03/29 05:42:40;;;;;;;62.73;36.97;;;9.10;99.90;;;;;;5019289;28;20242;-78
2022/03/29 05:45:08;;;;;;;60.10;37.70;;;9.20;99.90;;;;;;5027988;28;20199;-76
2022/03/29 05:50:22;;;;;;;68.00;38.60;;;9.00;99.90;;;;;;5013148;28;20203;-76
2022/03/29 05:52:51;;;;;;;68.23;39.93;;;8.80;99.90;;;;;;5017936;28;20223;-76
2022/03/29 05:55:18;;;;;;;70.93;39.83;;;8.70;99.90;;;;;;5016842;28;20237;-76
2022/03/29 05:57:49;;;;;;;74.73;41.20;;;8.70;99.90;;;;;;5020996;28;20211;-76
2022/03/29 06:00:18;;;;;;;79.97;41.43;;;8.70;99.90;;;;;;5017102;28;20203;-75
2022/03/29 06:02:54;;;;;;;77.13;42.37;;;8.60;99.90;;;;;;5021346;28;20226;-76
2022/03/29 06:05:21;;;;;;;73.97;40.47;;;8.60;99.90;;;;;;5016747;28;20207;-77
2022/03/29 06:08:27;;;;;;;76.60;41.97;;;8.90;99.90;;;;;;5017363;28;20223;-76
2022/03/29 06:10:55;;;;;;;76.23;41.23;;;8.60;99.90;;;;;;5027318;28;20195;-79
2022/03/29 06:13:22;;;;;;;87.77;42.77;;;8.30;99.90;;;;;;5021355;28;20226;-78
2022/03/29 06:15:50;;;;;;;80.53;43.57;;;8.60;99.90;;;;;;5021321;28;20669;-78
2022/03/29 06:18:17;;;;;;;91.47;44.97;;;8.70;99.90;;;;;;5036825;28;20565;-78
2022/03/29 06:21:00;;;;;;;80.30;42.73;;;8.90;99.90;;;;;;5024348;28;20203;-77
2022/03/29 06:23:29;;;;;;;94.00;45.30;;;8.80;99.90;;;;;;5017046;28;20211;-78
2022/03/29 06:25:57;;;;;;;96.17;45.80;;;8.90;99.90;;;;;;5021861;28;20199;-78
2022/03/29 06:28:24;;;;;;;95.53;48.37;;;9.10;99.90;;;;;;5028318;28;20199;-78
2022/03/29 06:30:57;;;;;;;97.80;48.67;;;9.10;99.90;;;;;;5022799;28;20200;-78
2022/03/29 06:33:26;;;;;;;94.83;46.30;;;8.90;99.90;;;;;;5020804;28;20215;-78
2022/03/29 06:35:53;;;;;;;98.77;46.80;;;8.80;99.90;;;;;;5016550;28;20188;-78
2022/03/29 06:38:22;;;;;;;82.03;45.40;;;9.10;99.90;;;;;;5025973;28;20194;-77
2022/03/29 06:40:52;;;;;;;86.27;46.10;;;9.10;99.90;;;;;;5028598;28;20207;-76
2022/03/29 06:43:20;;;;;;;92.93;46.70;;;9.00;99.90;;;;;;5019747;28;20234;-77
2022/03/29 06:45:47;;;;;;;88.07;45.20;;;9.00;99.90;;;;;;5015217;28;20199;-77
2022/03/29 06:48:15;;;;;;;85.67;45.20;;;9.00;99.90;;;;;;5022430;28;20203;-77
2022/03/29 06:50:44;;;;;;;83.10;46.63;;;9.00;99.90;;;;;;5022176;28;20569;-78
2022/03/29 06:53:11;;;;;;;79.57;45.47;;;9.00;99.90;;;;;;5038585;28;20227;-78
2022/03/29 06:55:39;;;;;;;70.67;42.20;;;8.90;99.90;;;;;;5018611;28;20196;-78
2022/03/29 06:58:07;;;;;;;65.73;40.13;;;9.00;99.90;;;;;;5034681;28;20200;-78
2022/03/29 07:00:36;;;;;;;59.17;38.60;;;9.00;99.90;;;;;;5023898;28;20204;-79
2022/03/29 07:03:03;;;;;;;66.20;39.73;;;9.10;99.90;;;;;;5025659;28;20231;-77
2022/03/29 07:05:30;;;;;;;65.87;40.30;;;8.90;99.90;;;;;;5020626;28;20572;-78
2022/03/29 07:07:58;;;;;;;70.33;41.90;;;9.00;99.90;;;;;;5029385;28;20187;-79
2022/03/29 07:13:11;;;;;;;74.60;42.67;;;9.00;99.90;;;;;;5025058;28;20223;-80
2022/03/29 07:15:38;;;;;;;78.87;43.77;;;9.00;99.90;;;;;;5018898;28;20195;-78
2022/03/29 07:18:06;;;;;;;71.47;42.33;;;9.10;99.90;;;;;;5023885;28;20199;-78
2022/03/29 07:20:34;;;;;;;57.87;37.83;;;8.80;99.90;;;;;;5027704;28;20207;-78
2022/03/29 07:23:03;;;;;;;60.33;38.97;;;8.80;99.90;;;;;;5024398;28;20222;-78
2022/03/29 07:25:32;;;;;;;56.37;36.67;;;9.00;99.90;;;;;;5039971;28;20211;-78
2022/03/29 07:27:59;;;;;;;59.87;37.70;;;8.60;99.90;;;;;;5024277;28;20199;-78
2022/03/29 07:30:29;;;;;;;56.97;37.87;;;8.70;99.90;;;;;;5019718;28;20215;-78
2022/03/29 07:32:58;;;;;;;57.37;36.93;;;8.80;99.90;;;;;;5028007;28;20237;-78
2022/03/29 07:35:28;;;;;;;55.57;36.30;;;9.10;99.90;;;;;;5018679;28;20214;-78
2022/03/29 07:37:56;;;;;;;54.63;35.93;;;8.80;99.90;;;;;;5023489;28;20203;-78
2022/03/29 07:40:25;;;;;;;57.23;37.40;;;8.90;99.90;;;;;;5020511;28;20218;-78
2022/03/29 07:42:53;;;;;;;54.57;37.00;;;9.00;99.90;;;;;;5019945;28;20223;-78
2022/03/29 07:45:22;;;;;;;57.37;36.80;;;8.90;99.90;;;;;;5024106;28;20207;-78
2022/03/29 07:47:52;;;;;;;56.37;37.83;;;8.90;99.90;;;;;;5023416;28;20230;-77
2022/03/29 07:50:20;;;;;;;65.67;39.57;;;9.20;99.90;;;;;;5030152;28;20222;-80
2022/03/29 07:52:47;;;;;;;75.30;44.00;;;9.30;99.90;;;;;;5025291;28;20223;-78
2022/03/29 07:55:15;;;;;;;71.07;43.03;;;9.10;99.90;;;;;;5038743;28;20208;-79
2022/03/29 07:57:43;;;;;;;72.00;42.10;;;9.10;99.90;;;;;;5034783;28;20227;-79
2022/03/29 08:03:01;;;;;;;80.73;46.73;;;9.00;99.90;;;;;;5021070;28;20218;-79
2022/03/29 08:05:29;;;;;;;91.70;49.97;;;9.10;99.90;;;;;;5025839;28;20298;-78
2022/03/29 08:07:58;;;;;;;75.10;45.17;;;9.20;99.90;;;;;;5019636;28;20206;-79
2022/03/29 08:10:30;;;;;;;83.33;50.23;;;9.10;99.90;;;;;;5027743;28;20211;-79
2022/03/29 08:12:58;;;;;;;84.03;48.17;;;9.20;99.90;;;;;;5016441;28;20219;-78
2022/03/29 08:15:26;;;;;;;87.23;49.77;;;9.00;99.90;;;;;;5022790;28;20238;-78
2022/03/29 08:17:53;;;;;;;83.43;48.33;;;8.80;99.90;;;;;;5017578;28;20211;-78
2022/03/29 08:20:22;;;;;;;88.80;51.63;;;8.80;99.90;;;;;;5020779;28;20211;-78
2022/03/29 08:22:50;;;;;;;95.80;52.60;;;9.00;99.90;;;;;;5017448;28;20223;-78
2022/03/29 08:25:19;;;;;;;91.63;51.60;;;9.10;99.90;;;;;;5025687;28;20191;-78
2022/03/29 08:27:47;;;;;;;94.50;52.20;;;9.10;99.90;;;;;;5028815;28;20576;-79
2022/03/29 08:30:16;;;;;;;92.70;52.57;;;9.30;99.90;;;;;;5027009;28;20195;-78
2022/03/29 08:32:44;;;;;;;91.80;50.60;;;9.30;99.90;;;;;;5023521;28;20226;-77
2022/03/29 08:35:12;;;;;;;93.63;52.73;;;9.20;99.90;;;;;;5017795;28;20199;-77
2022/03/29 08:37:42;;;;;;;82.20;49.17;;;9.20;99.90;;;;;;5020022;28;20211;-77
2022/03/29 08:40:13;;;;;;;85.37;51.03;;;9.30;99.90;;;;;;5023804;28;20207;-77
2022/03/29 08:42:42;;;;;;;83.97;51.30;;;9.30;99.90;;;;;;5014900;28;20215;-77
2022/03/29 08:45:11;;;;;;;88.13;49.63;;;9.20;99.90;;;;;;5018082;28;20204;-78
2022/03/29 08:47:40;;;;;;;96.67;53.33;;;9.10;99.90;;;;;;5022937;28;20203;-77
2022/03/29 08:50:09;;;;;;;95.60;52.03;;;9.30;99.90;;;;;;5019756;28;20204;-77
2022/03/29 08:52:37;;;;;;;89.67;50.97;;;9.30;99.90;;;;;;5022292;28;20227;-76
2022/03/29 08:55:08;;;;;;;96.27;52.23;;;9.40;99.90;;;;;;5021722;28;20194;-78
2022/03/29 08:57:36;;;;;;;99.63;54.57;;;9.50;99.90;;;;;;5021090;28;20642;-78
2022/03/29 09:00:05;;;;;;;106.27;55.67;;;9.60;99.90;;;;;;5013395;28;20554;-78
2022/03/29 09:02:35;;;;;;;96.73;52.83;;;9.60;99.90;;;;;;5020737;28;20211;-77
2022/03/29 09:05:15;;;;;;;91.93;50.87;;;9.50;99.90;;;;;;5026898;28;20227;-77
2022/03/29 09:07:54;;;;;;;93.63;52.27;;;9.50;99.90;;;;;;5038536;28;20210;-77
2022/03/29 09:10:38;;;;;;;103.23;53.80;;;9.50;99.90;;;;;;5020966;28;20200;-77
2022/03/29 09:13:18;;;;;;;94.70;53.33;;;9.30;99.90;;;;;;5017351;28;20234;-78
2022/03/29 09:15:47;;;;;;;93.20;49.70;;;9.50;99.90;;;;;;5023677;28;20206;-78
2022/03/29 09:18:14;;;;;;;89.27;52.20;;;9.60;99.90;;;;;;5023857;28;20215;-79
2022/03/29 09:20:42;;;;;;;88.63;50.60;;;9.50;99.90;;;;;;5022093;28;20203;-78
2022/03/29 09:23:14;;;;;;;92.90;51.03;;;9.60;99.90;;;;;;5023984;28;20220;-79
2022/03/29 09:25:47;;;;;;;93.53;50.43;;;9.60;99.90;;;;;;5019762;28;20210;-78
2022/03/29 09:28:15;;;;;;;92.27;50.50;;;9.70;99.90;;;;;;5019891;28;20195;-78
2022/03/29 09:30:45;;;;;;;92.43;52.87;;;9.50;99.90;;;;;;5019895;28;20222;-77
2022/03/29 09:33:15;;;;;;;87.80;50.10;;;9.40;99.90;;;;;;5038178;28;20242;-78
2022/03/29 09:35:54;;;;;;;91.73;50.93;;;9.30;99.90;;;;;;5016740;28;20202;-78
2022/03/29 09:38:26;;;;;;;93.47;49.50;;;9.60;99.90;;;;;;5018305;28;20677;-78
2022/03/29 09:40:56;;;;;;;94.13;49.97;;;9.60;99.90;;;;;;5021574;28;20203;-77
2022/03/29 09:44:02;;;;;;;91.00;51.23;;;9.60;99.90;;;;;;5024941;28;20211;-78
2022/03/29 09:46:30;;;;;;;96.27;51.33;;;9.60;99.90;;;;;;5025392;28;20202;-77
2022/03/29 09:49:03;;;;;;;92.83;49.73;;;9.40;99.90;;;;;;5020065;28;20207;-78
2022/03/29 09:51:30;;;;;;;92.47;50.83;;;9.40;99.90;;;;;;5032904;28;20705;-78
2022/03/29 09:54:01;;;;;;;96.63;50.93;;;9.40;99.90;;;;;;5036160;28;20202;-79
2022/03/29 09:56:31;;;;;;;102.23;52.10;;;9.50;99.90;;;;;;5032389;28;20596;-79
2022/03/29 09:59:08;;;;;;;92.20;50.33;;;9.60;99.90;;;;;;5017300;28;20203;-78
2022/03/29 10:01:48;;;;;;;95.87;49.70;;;9.70;99.90;;;;;;5018457;28;20219;-78
2022/03/29 10:04:19;;;;;;;100.57;54.60;;;9.70;99.90;;;;;;5023813;28;20222;-78
2022/03/29 10:06:52;;;;;;;92.77;52.67;;;9.60;99.90;;;;;;5031666;28;20203;-77
2022/03/29 10:09:26;;;;;;;85.47;49.13;;;9.90;99.90;;;;;;5024257;28;20195;-77
2022/03/29 10:11:57;;;;;;;91.30;50.17;;;9.70;99.90;;;;;;5011346;28;20223;-77
2022/03/29 10:14:25;;;;;;;92.20;49.53;;;9.50;99.90;;;;;;5016864;28;20203;-77
2022/03/29 10:16:54;;;;;;;82.50;48.17;;;9.50;99.90;;;;;;5024086;28;20199;-77
2022/03/29 10:19:22;;;;;;;96.57;52.07;;;9.70;99.90;;;;;;5021764;28;20195;-77
2022/03/29 10:21:53;;;;;;;102.80;55.37;;;9.70;99.90;;;;;;5037091;28;20227;-76
2022/03/29 10:24:22;;;;;;;104.43;56.20;;;9.90;99.90;;;;;;5018231;28;20241;-78
2022/03/29 10:26:51;;;;;;;119.10;60.47;;;10.10;99.90;;;;;;5016554;28;20601;-77
2022/03/29 10:29:20;;;;;;;123.23;61.03;;;10.00;99.90;;;;;;5018118;28;20298;-78
2022/03/29 10:31:52;;;;;;;127.73;62.07;;;9.80;99.90;;;;;;5033906;28;20238;-78
2022/03/29 10:34:22;;;;;;;126.43;61.20;;;9.80;99.90;;;;;;5015095;28;20188;-78
2022/03/29 10:37:04;;;;;;;121.70;60.60;;;9.80;99.90;;;;;;5014772;28;20218;-78
2022/03/29 10:39:41;;;;;;;118.03;60.83;;;10.00;99.90;;;;;;5014458;28;20210;-78
2022/03/29 10:42:37;;;;;;;117.30;57.07;;;10.20;99.90;;;;;;5014479;28;20219;-75
2022/03/29 10:45:24;;;;;;;72.40;37.97;;;10.30;99.90;;;;;;5022799;28;20238;-77
2022/03/29 10:48:07;;;;;;;76.57;41.37;;;11.40;99.90;;;;;;5022834;28;20203;-77
2022/03/29 10:50:58;;;;;;;81.03;45.17;;;12.10;99.90;;;;;;5009985;28;20211;-77
2022/03/29 10:53:31;;;;;;;89.77;46.87;;;12.60;99.90;;;;;;5025687;28;20223;-77
2022/03/29 10:56:20;;;;;;;78.95;42.70;;;12.20;99.90;;;;;;4997813;28;20684;-77
2022/03/29 10:59:10;;;;;;;92.60;50.55;;;12.50;99.90;;;;;;5003727;28;20202;-79
2022/03/29 11:01:42;;;;;;;95.68;50.15;;;12.10;99.90;;;;;;5025067;28;20219;-78
2022/03/29 11:04:20;;;;;;;92.57;50.38;;;11.40;99.90;;;;;;5019384;28;20234;-79
2022/03/29 11:07:10;;;;;;;95.20;50.63;;;11.10;99.90;;;;;;5018877;28;20206;-78
2022/03/29 11:09:38;;;;;;;86.77;48.97;;;10.80;99.90;;;;;;5022894;28;20548;-78
2022/03/29 11:12:37;;;;;;;98.50;51.70;;;10.70;99.90;;;;;;5021902;28;20230;-78
2022/03/29 11:15:48;;;;;;;91.73;48.23;;;10.60;99.90;;;;;;5015419;28;20204;-78
2022/03/29 11:18:51;;;;;;;87.03;46.70;;;10.80;99.90;;;;;;5008223;28;20294;-78
2022/03/29 11:21:30;;;;;;;88.23;46.60;;;10.80;99.90;;;;;;5044770;28;20203;-78
2022/03/29 11:23:59;;;;;;;81.63;44.72;;;10.80;99.90;;;;;;5022657;28;20207;-78
2022/03/29 11:26:27;;;;;;;73.77;42.70;;;10.50;99.90;;;;;;5013596;28;20191;-78
2022/03/29 11:28:56;;;;;;;77.37;43.97;;;10.50;99.90;;;;;;5009896;28;20192;-78
2022/03/29 11:31:25;;;;;;;74.97;42.80;;;10.50;99.90;;;;;;5016137;28;20195;-78
2022/03/29 11:33:57;;;;;;;75.00;43.63;;;10.10;99.90;;;;;;5015262;28;20210;-78
2022/03/29 11:36:24;;;;;;;74.40;42.50;;;10.10;99.90;;;;;;5014006;28;20696;-78
2022/03/29 11:38:52;;;;;;;75.80;44.07;;;10.30;99.90;;;;;;5022664;28;20199;-78
2022/03/29 11:41:24;;;;;;;72.27;41.47;;;10.40;99.90;;;;;;5021724;28;20219;-78
2022/03/29 11:43:54;;;;;;;68.53;39.70;;;10.40;99.90;;;;;;5011458;28;20207;-78
2022/03/29 11:46:22;;;;;;;67.97;40.47;;;10.60;99.90;;;;;;5021849;28;20716;-79
2022/03/29 11:48:53;;;;;;;67.33;40.77;;;10.70;99.90;;;;;;5017446;28;20422;-78
2022/03/29 11:51:22;;;;;;;65.93;39.80;;;10.80;99.90;;;;;;5016400;28;20214;-78
2022/03/29 11:53:59;;;;;;;67.47;40.53;;;10.80;99.90;;;;;;5029920;28;20204;-77
2022/03/29 11:56:26;;;;;;;62.23;39.07;;;10.90;99.90;;;;;;5019500;28;20218;-78
2022/03/29 11:58:55;;;;;;;69.10;41.17;;;10.80;99.90;;;;;;5020331;28;20207;-78
2022/03/29 12:01:27;;;;;;;68.63;41.30;;;11.00;99.90;;;;;;5017580;28;20207;-76
2022/03/29 12:03:56;;;;;;;64.70;39.80;;;10.90;99.90;;;;;;5017625;28;20210;-75
2022/03/29 12:06:26;;;;;;;64.73;39.87;;;10.80;99.90;;;;;;5014458;28;20744;-75
2022/03/29 12:08:57;;;;;;;59.33;38.83;;;10.80;99.90;;;;;;5020608;28;20564;-75
2022/03/29 12:11:28;;;;;;;51.00;33.93;;;10.80;99.90;;;;;;5020502;28;20211;-76
2022/03/29 12:14:06;;;;;;;51.73;35.90;;;10.90;99.90;;;;;;5020505;28;20208;-76
2022/03/29 12:16:36;;;;;;;54.67;35.87;;;11.20;99.90;;;;;;5027466;28;20214;-76
2022/03/29 12:19:07;;;;;;;50.90;34.77;;;11.10;99.90;;;;;;5018521;28;20567;-76
2022/03/29 12:21:38;;;;;;;49.77;33.20;;;10.90;99.90;;;;;;5014457;28;20215;-75
2022/03/29 12:24:07;;;;;;;47.03;32.13;;;10.80;99.90;;;;;;5017203;28;20721;-76
2022/03/29 12:26:39;;;;;;;45.83;30.23;;;11.00;99.90;;;;;;5041151;28;20233;-75
2022/03/29 12:29:09;;;;;;;47.73;32.43;;;10.80;99.90;;;;;;5033240;28;20198;-75
2022/03/29 12:31:37;;;;;;;48.13;30.55;;;11.00;99.90;;;;;;5019559;28;20223;-75
2022/03/29 12:34:06;;;;;;;42.63;29.25;;;11.00;99.90;;;;;;5028769;28;20549;-76
2022/03/29 12:36:33;;;;;;;46.03;31.55;;;11.10;99.90;;;;;;5021147;28;20198;-77
2022/03/29 12:39:06;;;;;;;42.07;29.47;;;11.20;99.90;;;;;;5012687;28;20210;-76
2022/03/29 12:41:37;;;;;;;46.57;31.50;;;11.30;99.90;;;;;;5036061;28;20222;-76
2022/03/29 12:44:07;;;;;;;45.07;30.53;;;11.30;99.90;;;;;;5027329;28;20210;-77
2022/03/29 12:46:35;;;;;;;41.93;30.00;;;11.20;99.90;;;;;;5021606;28;20219;-76
2022/03/29 12:49:03;;;;;;;39.10;29.45;;;11.40;99.90;;;;;;5026129;28;20207;-77
2022/03/29 12:51:32;;;;;;;43.53;29.30;;;11.60;99.90;;;;;;5023430;28;20210;-77
2022/03/29 12:54:03;;;;;;;44.70;30.10;;;11.70;99.90;;;;;;5020835;28;20194;-77
2022/03/29 12:56:58;;;;;;;43.72;29.38;;;11.80;99.90;;;;;;5027283;28;20206;-79
2022/03/29 12:59:31;;;;;;;38.78;29.17;;;11.90;99.90;;;;;;5024758;28;20196;-77